Wetterdaten: Woche 06.01.03 - 12.01.03 (KW2)
Datum Zeit Temperatur Luftfeuchte Luftdruck Regenmenge Wind Richtung Taupunkt Windchill
06.01.2003 00:00 -3.1 C 85 % 1010.7 hPa 0.0 l/m 0.8 km/h (0 Bft) W -5.2 C -3.3 C
06.01.2003 01:00 -4.0 C 89 % 1010.2 hPa 0.0 l/m 0.0 km/h (0 Bft) - - -5.5 C -4.0 C
06.01.2003 02:00 -3.6 C 91 % 1010.2 hPa 0.0 l/m 0.1 km/h (0 Bft) - - -4.9 C -3.6 C
06.01.2003 03:00 -2.9 C 90 % 1010.2 hPa 0.0 l/m 1.0 km/h (0 Bft) W-NW -4.3 C -3.3 C
06.01.2003 04:00 -2.9 C 85 % 1009.9 hPa 0.0 l/m 0.2 km/h (0 Bft) - - -5.0 C -2.9 C
06.01.2003 05:00 -2.9 C 73 % 1009.2 hPa 0.0 l/m 0.9 km/h (0 Bft) NO -7.0 C -3.2 C
06.01.2003 06:00 -2.9 C 71 % 1009.2 hPa 0.0 l/m 0.6 km/h (0 Bft) N -7.5 C -2.9 C
06.01.2003 07:00 -2.9 C 71 % 1010.0 hPa 0.0 l/m 0.4 km/h (0 Bft) N-NO -7.5 C -2.9 C
06.01.2003 08:00 -3.1 C 68 % 1010.2 hPa 0.0 l/m 1.2 km/h (1 Bft) NO -8.2 C -3.5 C
06.01.2003 09:00 -2.9 C 65 % 1010.2 hPa 0.0 l/m 1.8 km/h (1 Bft) N-NO -8.5 C -3.2 C
06.01.2003 10:00 -2.6 C 63 % 1010.2 hPa 0.0 l/m 2.9 km/h (1 Bft) NO -8.6 C -3.4 C
06.01.2003 11:00 -2.2 C 63 % 1010.0 hPa 0.0 l/m 3.6 km/h (1 Bft) O-SO -8.4 C -3.2 C
06.01.2003 12:00 -2.1 C 64 % 1009.2 hPa 0.0 l/m 3.1 km/h (1 Bft) O-SO -7.9 C -3.0 C
06.01.2003 13:00 -1.9 C 65 % 1009.2 hPa 0.0 l/m 1.5 km/h (1 Bft) O -7.5 C -2.3 C
06.01.2003 14:00 -1.7 C 62 % 1009.2 hPa 0.0 l/m 3.8 km/h (1 Bft) O-SO -7.9 C -3.0 C
06.01.2003 15:00 -2.1 C 64 % 1009.2 hPa 0.0 l/m 3.7 km/h (1 Bft) O-SO -7.9 C -3.4 C
06.01.2003 16:00 -2.5 C 69 % 1010.2 hPa 0.0 l/m 2.4 km/h (1 Bft) O-SO -7.5 C -3.0 C
06.01.2003 17:00 -2.5 C 65 % 1010.3 hPa 0.0 l/m 0.2 km/h (0 Bft) O -8.2 C -2.5 C
06.01.2003 18:00 -2.7 C 65 % 1011.3 hPa 0.0 l/m 3.9 km/h (1 Bft) N-NO -8.3 C -3.9 C
06.01.2003 19:00 -3.2 C 65 % 1011.9 hPa 0.0 l/m 3.6 km/h (1 Bft) N -8.8 C -4.2 C
06.01.2003 20:00 -3.4 C 64 % 1012.3 hPa 0.0 l/m 2.5 km/h (1 Bft) N -9.3 C -4.2 C
06.01.2003 21:00 -3.8 C 63 % 1012.3 hPa 0.0 l/m 5.1 km/h (1 Bft) N -9.8 C -5.5 C
06.01.2003 22:00 -3.9 C 63 % 1012.3 hPa 0.0 l/m 1.8 km/h (1 Bft) N -9.9 C -4.4 C
06.01.2003 23:00 -3.8 C 61 % 1012.3 hPa 0.0 l/m 1.2 km/h (1 Bft) N -10.3 C -4.0 C
07.01.2003 00:00 -3.6 C 60 % 1012.3 hPa 0.0 l/m 0.6 km/h (0 Bft) O -10.3 C -3.6 C
07.01.2003 01:00 -3.4 C 62 % 1012.9 hPa 0.0 l/m 2.0 km/h (1 Bft) O-SO -9.6 C -4.1 C
07.01.2003 02:00 -3.8 C 72 % 1013.3 hPa 0.0 l/m 0.5 km/h (0 Bft) O -8.0 C -3.9 C
07.01.2003 03:00 -3.9 C 77 % 1013.3 hPa 0.3 l/m 0.0 km/h (0 Bft) - - -7.3 C -3.9 C
07.01.2003 04:00 -4.1 C 80 % 1013.3 hPa 0.0 l/m 0.0 km/h (0 Bft) - - -7.0 C -4.1 C
07.01.2003 05:00 -4.2 C 84 % 1013.3 hPa 0.3 l/m 0.0 km/h (0 Bft) - - -6.5 C -4.2 C
07.01.2003 06:00 -4.2 C 86 % 1013.3 hPa 0.3 l/m 0.0 km/h (0 Bft) - - -6.3 C -4.2 C
07.01.2003 07:00 -4.4 C 83 % 1013.6 hPa 0.0 l/m 0.0 km/h (0 Bft) - - -6.9 C -4.4 C
07.01.2003 08:00 -4.6 C 82 % 1014.4 hPa 0.0 l/m 0.0 km/h (0 Bft) - - -7.2 C -4.6 C
07.01.2003 09:00 -4.6 C 76 % 1014.4 hPa 0.0 l/m 0.7 km/h (0 Bft) N-NO -8.1 C -4.8 C
07.01.2003 10:00 -3.9 C 67 % 1014.4 hPa 0.0 l/m 3.1 km/h (1 Bft) N-NO -9.0 C -4.6 C
07.01.2003 11:00 -3.8 C 65 % 1014.4 hPa 0.0 l/m 3.5 km/h (1 Bft) NO -9.3 C -4.7 C
07.01.2003 12:00 -3.6 C 63 % 1013.9 hPa 0.0 l/m 2.3 km/h (1 Bft) N-NO -9.6 C -4.4 C
07.01.2003 13:00 -3.0 C 65 % 1014.2 hPa 0.0 l/m 2.1 km/h (1 Bft) N -8.7 C -3.6 C
07.01.2003 14:00 -3.0 C 64 % 1013.4 hPa 0.0 l/m 1.2 km/h (1 Bft) SO -8.9 C -3.4 C
07.01.2003 15:00 -3.3 C 63 % 1013.4 hPa 0.0 l/m 4.9 km/h (1 Bft) O-NO -9.3 C -4.9 C
07.01.2003 16:00 -4.2 C 63 % 1014.2 hPa 0.0 l/m 3.8 km/h (1 Bft) N-NO -10.3 C -5.5 C
07.01.2003 17:00 -5.2 C 65 % 1014.4 hPa 0.0 l/m 2.3 km/h (1 Bft) O -10.8 C -6.0 C
07.01.2003 18:00 -5.2 C 63 % 1014.4 hPa 0.0 l/m 5.4 km/h (1 Bft) O-NO -11.1 C -7.4 C
07.01.2003 19:00 -5.4 C 62 % 1014.4 hPa 0.0 l/m 3.1 km/h (1 Bft) O-NO -11.6 C -6.4 C
07.01.2003 20:00 -5.7 C 60 % 1014.4 hPa 0.0 l/m 5.0 km/h (1 Bft) O -12.1 C -7.6 C
07.01.2003 21:00 -6.1 C 61 % 1013.9 hPa 0.0 l/m 2.2 km/h (1 Bft) N-NO -12.4 C -6.7 C
07.01.2003 22:00 -6.3 C 60 % 1013.3 hPa 0.0 l/m 1.9 km/h (1 Bft) O-SO -12.9 C -6.8 C
07.01.2003 23:00 -6.6 C 60 % 1013.3 hPa 0.0 l/m 2.6 km/h (1 Bft) NO -13.1 C -7.6 C
08.01.2003 00:00 -6.9 C 63 % 1012.6 hPa 0.0 l/m 1.6 km/h (1 Bft) O-NO -12.8 C -7.3 C
08.01.2003 01:00 -7.3 C 65 % 1012.3 hPa 0.0 l/m 1.1 km/h (0 Bft) N-NO -12.8 C -7.4 C
08.01.2003 02:00 -7.2 C 62 % 1012.3 hPa 0.0 l/m 0.9 km/h (0 Bft) O -13.2 C -7.5 C
08.01.2003 03:00 -7.0 C 63 % 1012.3 hPa 0.0 l/m 1.9 km/h (1 Bft) O-NO -12.9 C -7.6 C
08.01.2003 04:00 -6.9 C 63 % 1012.3 hPa 0.0 l/m 1.9 km/h (1 Bft) N-NO -12.7 C -7.3 C
08.01.2003 05:00 -6.9 C 63 % 1012.1 hPa 0.0 l/m 3.8 km/h (1 Bft) NO -12.7 C -8.3 C
08.01.2003 06:00 -6.9 C 64 % 1011.7 hPa 0.0 l/m 2.6 km/h (1 Bft) NO -12.5 C -8.1 C
08.01.2003 07:00 -7.0 C 64 % 1012.3 hPa 0.0 l/m 1.5 km/h (1 Bft) NO -12.6 C -7.3 C
08.01.2003 08:00 -6.9 C 62 % 1012.1 hPa 0.0 l/m 3.0 km/h (1 Bft) O-NO -12.9 C -8.0 C
08.01.2003 09:00 -6.5 C 65 % 1012.3 hPa 0.0 l/m 4.2 km/h (1 Bft) O-SO -11.9 C -7.9 C
08.01.2003 10:00 -6.1 C 61 % 1012.3 hPa 0.0 l/m 5.9 km/h (2 Bft) O -12.4 C -8.6 C
08.01.2003 11:00 -5.8 C 57 % 1011.5 hPa 0.0 l/m 4.5 km/h (1 Bft) O -13.0 C -7.3 C
08.01.2003 12:00 -5.5 C 56 % 1011.3 hPa 0.0 l/m 7.6 km/h (2 Bft) O-SO -12.9 C -8.5 C
08.01.2003 13:00 -4.9 C 55 % 1010.3 hPa 0.0 l/m 6.9 km/h (2 Bft) O -12.5 C -7.4 C
08.01.2003 14:00 -4.8 C 54 % 1010.2 hPa 0.0 l/m 2.7 km/h (1 Bft) NO -12.6 C -5.4 C
08.01.2003 15:00 -5.1 C 56 % 1010.6 hPa 0.0 l/m 1.5 km/h (1 Bft) NO -12.5 C -5.5 C
08.01.2003 16:00 -6.0 C 59 % 1010.2 hPa 0.0 l/m 3.5 km/h (1 Bft) O-NO -12.6 C -7.3 C
08.01.2003 17:00 -6.5 C 61 % 1011.1 hPa 0.0 l/m 1.1 km/h (0 Bft) N-NO -12.7 C -6.8 C
08.01.2003 18:00 -6.6 C 60 % 1011.3 hPa 0.0 l/m 0.6 km/h (0 Bft) NO -13.0 C -6.6 C
08.01.2003 19:00 -6.8 C 60 % 1011.3 hPa 0.0 l/m 4.4 km/h (1 Bft) NO -13.1 C -8.5 C
08.01.2003 20:00 -7.5 C 65 % 1011.3 hPa 0.0 l/m 1.1 km/h (0 Bft) N-NO -12.8 C -7.8 C
08.01.2003 21:00 -8.1 C 68 % 1011.3 hPa 0.0 l/m 2.1 km/h (1 Bft) SO -12.9 C -8.8 C
08.01.2003 22:00 -8.3 C 69 % 1011.3 hPa 0.0 l/m 4.6 km/h (1 Bft) O -13.0 C -10.2 C
08.01.2003 23:00 -8.5 C 69 % 1011.3 hPa 0.0 l/m 2.1 km/h (1 Bft) O-NO -13.1 C -9.0 C
09.01.2003 00:00 -8.2 C 68 % 1011.3 hPa 0.0 l/m 1.8 km/h (1 Bft) SO -13.1 C -9.0 C
09.01.2003 01:00 -8.2 C 68 % 1011.3 hPa 0.0 l/m 2.7 km/h (1 Bft) NO -13.2 C -9.3 C
09.01.2003 02:00 -8.0 C 63 % 1011.8 hPa 0.0 l/m 2.4 km/h (1 Bft) O -13.7 C -9.0 C
09.01.2003 03:00 -7.9 C 66 % 1012.2 hPa 0.0 l/m 0.8 km/h (0 Bft) NO -13.1 C -7.9 C
09.01.2003 04:00 -7.9 C 64 % 1011.7 hPa 0.0 l/m 0.6 km/h (0 Bft) N-NO -13.5 C -8.1 C
09.01.2003 05:00 -8.0 C 65 % 1011.3 hPa 0.0 l/m 1.5 km/h (1 Bft) NO -13.4 C -8.2 C
09.01.2003 06:00 -8.0 C 66 % 1011.9 hPa 0.0 l/m 1.7 km/h (1 Bft) N-NO -13.2 C -8.5 C
09.01.2003 07:00 -8.0 C 67 % 1012.3 hPa 0.0 l/m 2.5 km/h (1 Bft) NO -13.0 C -8.8 C
09.01.2003 08:00 -8.1 C 67 % 1012.3 hPa 0.0 l/m 0.6 km/h (0 Bft) NO -13.2 C -8.1 C
09.01.2003 09:00 -8.1 C 65 % 1013.3 hPa 0.0 l/m 0.6 km/h (0 Bft) NO -13.5 C -8.1 C
09.01.2003 10:00 -8.1 C 64 % 1013.6 hPa 0.0 l/m 1.7 km/h (1 Bft) N -13.7 C -8.6 C
09.01.2003 11:00 -7.7 C 62 % 1013.3 hPa 0.0 l/m 1.0 km/h (0 Bft) N-NO -13.7 C -8.0 C
09.01.2003 12:00 -7.2 C 60 % 1013.3 hPa 0.0 l/m 2.3 km/h (1 Bft) O -13.7 C -8.1 C
09.01.2003 13:00 -6.7 C 61 % 1013.1 hPa 0.0 l/m 2.8 km/h (1 Bft) O-SO -13.0 C -7.4 C
09.01.2003 14:00 -6.3 C 62 % 1012.5 hPa 0.0 l/m 12.5 km/h (3 Bft) O-SO -12.3 C -10.7 C
09.01.2003 15:00 -6.6 C 64 % 1013.3 hPa 0.0 l/m 16.1 km/h (3 Bft) O-SO -12.2 C -12.7 C
09.01.2003 16:00 -7.3 C 64 % 1013.3 hPa 0.0 l/m 13.1 km/h (3 Bft) O-SO -12.9 C -12.9 C
09.01.2003 17:00 -7.5 C 64 % 1014.0 hPa 0.0 l/m 8.7 km/h (2 Bft) O-SO -13.1 C -11.5 C
09.01.2003 18:00 -7.5 C 63 % 1014.5 hPa 0.0 l/m 7.2 km/h (2 Bft) O-SO -13.4 C -10.7 C
09.01.2003 19:00 -7.9 C 62 % 1015.4 hPa 0.0 l/m 6.7 km/h (2 Bft) O-SO -13.9 C -10.9 C
09.01.2003 20:00 -8.4 C 61 % 1015.4 hPa 0.0 l/m 7.9 km/h (2 Bft) O-SO -14.7 C -12.1 C
09.01.2003 21:00 -8.6 C 59 % 1015.6 hPa 0.0 l/m 0.2 km/h (0 Bft) O-NO -15.1 C -8.6 C
09.01.2003 22:00 -9.5 C 64 % 1015.6 hPa 0.0 l/m 1.8 km/h (1 Bft) N-NO -14.9 C -10.0 C
09.01.2003 23:00 -9.2 C 61 % 1016.4 hPa 0.0 l/m 3.2 km/h (1 Bft) NO -15.3 C -10.6 C
10.01.2003 00:00 -9.3 C 59 % 1015.7 hPa 0.0 l/m 3.2 km/h (1 Bft) N -15.8 C -10.3 C
10.01.2003 01:00 -9.4 C 60 % 1015.4 hPa 0.0 l/m 7.1 km/h (2 Bft) N-NO -15.6 C -12.8 C
10.01.2003 02:00 -9.4 C 60 % 1016.3 hPa 0.0 l/m 6.5 km/h (2 Bft) N-NO -15.7 C -12.2 C
10.01.2003 03:00 -9.4 C 61 % 1016.4 hPa 0.0 l/m 3.7 km/h (1 Bft) N-NO -15.6 C -10.9 C
10.01.2003 04:00 -9.5 C 60 % 1016.4 hPa 0.0 l/m 4.6 km/h (1 Bft) N-NO -15.7 C -11.3 C
10.01.2003 05:00 -9.4 C 61 % 1017.2 hPa 0.0 l/m 1.5 km/h (1 Bft) O -15.6 C -9.9 C
10.01.2003 06:00 -9.4 C 61 % 1017.5 hPa 0.0 l/m 1.4 km/h (1 Bft) O-SO -15.5 C -9.9 C
10.01.2003 07:00 -9.5 C 61 % 1018.4 hPa 0.0 l/m 0.1 km/h (0 Bft) NO -15.6 C -9.5 C
10.01.2003 08:00 -9.5 C 63 % 1018.5 hPa 0.0 l/m 3.1 km/h (1 Bft) O-SO -15.3 C -10.6 C
10.01.2003 09:00 -9.5 C 64 % 1019.3 hPa 0.0 l/m 3.5 km/h (1 Bft) O-SO -14.9 C -11.0 C
10.01.2003 10:00 -9.0 C 64 % 1020.1 hPa 0.0 l/m 2.0 km/h (1 Bft) NO -14.6 C -9.8 C
10.01.2003 11:00 -8.4 C 61 % 1020.6 hPa 0.0 l/m 6.7 km/h (2 Bft) O-SO -14.5 C -11.4 C
10.01.2003 12:00 -8.0 C 57 % 1019.7 hPa 0.0 l/m 9.4 km/h (2 Bft) O-SO -14.9 C -12.1 C
10.01.2003 13:00 -7.6 C 56 % 1019.6 hPa 0.0 l/m 5.5 km/h (1 Bft) O-SO -14.8 C -10.0 C
10.01.2003 14:00 -7.3 C 54 % 1020.0 hPa 0.0 l/m 1.5 km/h (1 Bft) S -14.9 C -7.8 C
10.01.2003 15:00 -7.2 C 55 % 1020.6 hPa 0.0 l/m 3.8 km/h (1 Bft) O -14.6 C -8.7 C
10.01.2003 16:00 -7.5 C 56 % 1020.8 hPa 0.0 l/m 2.2 km/h (1 Bft) O -14.7 C -8.1 C
10.01.2003 17:00 -7.9 C 53 % 1021.7 hPa 0.0 l/m 3.9 km/h (1 Bft) N-NO -15.8 C -9.4 C
10.01.2003 18:00 -8.0 C 54 % 1022.7 hPa 0.0 l/m 0.4 km/h (0 Bft) O-NO -15.6 C -8.0 C
10.01.2003 19:00 -7.8 C 53 % 1022.7 hPa 0.0 l/m 0.4 km/h (0 Bft) O -15.7 C -8.0 C
10.01.2003 20:00 -7.7 C 56 % 1023.4 hPa 0.0 l/m 0.1 km/h (0 Bft) - - -15.0 C -7.7 C
10.01.2003 21:00 -7.6 C 59 % 1023.7 hPa 0.0 l/m 1.1 km/h (1 Bft) O-NO -14.3 C -8.1 C
10.01.2003 22:00 -7.3 C 57 % 1023.7 hPa 0.0 l/m 1.3 km/h (1 Bft) NO -14.3 C -7.8 C
10.01.2003 23:00 -7.2 C 56 % 1023.7 hPa 0.0 l/m 3.0 km/h (1 Bft) O -14.5 C -8.3 C
11.01.2003 00:00 -6.9 C 56 % 1023.7 hPa 0.0 l/m 3.6 km/h (1 Bft) NO -14.2 C -8.4 C
11.01.2003 01:00 -6.9 C 60 % 1023.7 hPa 0.0 l/m 2.9 km/h (1 Bft) N-NO -13.3 C -8.1 C
11.01.2003 02:00 -6.9 C 62 % 1023.7 hPa 0.0 l/m 3.2 km/h (1 Bft) NO -13.0 C -8.0 C
11.01.2003 03:00 -6.9 C 60 % 1024.2 hPa 0.0 l/m 4.4 km/h (1 Bft) NO -13.2 C -8.3 C
11.01.2003 04:00 -6.9 C 60 % 1024.8 hPa 0.0 l/m 6.9 km/h (2 Bft) O -13.4 C -9.4 C
11.01.2003 05:00 -6.8 C 59 % 1024.8 hPa 0.0 l/m 7.6 km/h (2 Bft) O -13.4 C -9.6 C
11.01.2003 06:00 -6.8 C 59 % 1025.2 hPa 0.0 l/m 11.0 km/h (2 Bft) O -13.5 C -10.8 C
11.01.2003 07:00 -6.8 C 58 % 1025.8 hPa 0.0 l/m 11.8 km/h (2 Bft) O-NO -13.6 C -11.5 C
11.01.2003 08:00 -7.0 C 58 % 1026.7 hPa 0.0 l/m 8.5 km/h (2 Bft) O -13.8 C -10.3 C
11.01.2003 09:00 -6.7 C 58 % 1027.3 hPa 0.0 l/m 15.1 km/h (3 Bft) O -13.6 C -11.4 C
11.01.2003 10:00 -6.1 C 61 % 1027.9 hPa 0.0 l/m 14.0 km/h (3 Bft) O-SO -12.5 C -11.2 C
11.01.2003 11:00 -5.5 C 61 % 1027.9 hPa 0.0 l/m 16.1 km/h (3 Bft) O -11.8 C -10.9 C
11.01.2003 12:00 -5.0 C 60 % 1027.9 hPa 0.0 l/m 20.5 km/h (4 Bft) O -11.6 C -11.5 C
11.01.2003 13:00 -4.8 C 57 % 1027.0 hPa 0.0 l/m 15.6 km/h (3 Bft) O -11.9 C -10.0 C
11.01.2003 14:00 -4.6 C 56 % 1027.3 hPa 0.0 l/m 13.2 km/h (3 Bft) O -12.1 C -9.0 C
11.01.2003 15:00 -4.4 C 55 % 1027.9 hPa 0.0 l/m 9.2 km/h (2 Bft) O-SO -11.9 C -7.3 C
11.01.2003 16:00 -4.5 C 56 % 1028.1 hPa 0.0 l/m 7.3 km/h (2 Bft) O-NO -11.9 C -6.9 C
11.01.2003 17:00 -4.7 C 56 % 1028.9 hPa 0.0 l/m 7.1 km/h (2 Bft) O-NO -12.1 C -7.1 C
11.01.2003 18:00 -4.9 C 55 % 1029.3 hPa 0.0 l/m 10.8 km/h (2 Bft) O -12.5 C -8.7 C
11.01.2003 19:00 -5.4 C 54 % 1029.9 hPa 0.0 l/m 8.2 km/h (2 Bft) O -13.2 C -8.5 C
11.01.2003 20:00 -5.7 C 53 % 1029.9 hPa 0.0 l/m 7.6 km/h (2 Bft) O -13.7 C -8.6 C
11.01.2003 21:00 -6.1 C 53 % 1029.9 hPa 0.0 l/m 10.2 km/h (2 Bft) O-NO -14.2 C -9.7 C
11.01.2003 22:00 -6.4 C 54 % 1029.9 hPa 0.0 l/m 8.8 km/h (2 Bft) O-NO -14.2 C -9.7 C
11.01.2003 23:00 -6.8 C 56 % 1030.3 hPa 0.0 l/m 5.7 km/h (1 Bft) O -14.1 C -8.9 C
12.01.2003 00:00 -7.9 C 62 % 1030.3 hPa 0.0 l/m 5.5 km/h (1 Bft) O -14.0 C -10.3 C
12.01.2003 01:00 -8.7 C 64 % 1029.9 hPa 0.0 l/m 1.6 km/h (1 Bft) O-NO -14.2 C -9.1 C
12.01.2003 02:00 -9.3 C 65 % 1030.6 hPa 0.0 l/m 2.1 km/h (1 Bft) O -14.6 C -10.2 C
12.01.2003 03:00 -9.3 C 64 % 1031.0 hPa 0.0 l/m 5.1 km/h (1 Bft) O-NO -14.9 C -11.5 C
12.01.2003 04:00 -9.3 C 62 % 1031.0 hPa 0.0 l/m 3.2 km/h (1 Bft) O -15.3 C -10.5 C
12.01.2003 05:00 -10.1 C 64 % 1031.0 hPa 0.0 l/m 1.5 km/h (1 Bft) SO -15.5 C -10.5 C
12.01.2003 06:00 -10.8 C 67 % 1031.0 hPa 0.0 l/m 0.0 km/h (0 Bft) - - -15.7 C -10.8 C
12.01.2003 07:00 -11.7 C 69 % 1031.6 hPa 0.0 l/m 0.0 km/h (0 Bft) - - -16.1 C -11.7 C
12.01.2003 08:00 -12.0 C 72 % 1032.0 hPa 0.0 l/m 0.2 km/h (0 Bft) SW -16.0 C -12.0 C
12.01.2003 09:00 -10.6 C 66 % 1033.1 hPa 0.0 l/m 0.4 km/h (0 Bft) S-SO -15.8 C -10.8 C
12.01.2003 10:00 -8.4 C 55 % 1033.1 hPa 0.0 l/m 9.0 km/h (2 Bft) SO -15.8 C -12.9 C
12.01.2003 11:00 -7.0 C 52 % 1033.1 hPa 0.0 l/m 15.3 km/h (3 Bft) SO -15.1 C -12.8 C
12.01.2003 12:00 -5.6 C 49 % 1032.3 hPa 0.0 l/m 15.3 km/h (3 Bft) SO -14.7 C -11.4 C
12.01.2003 13:00 -4.4 C 49 % 1032.0 hPa 0.0 l/m 13.8 km/h (3 Bft) SO -13.6 C -9.4 C
12.01.2003 14:00 -3.6 C 46 % 1032.0 hPa 0.0 l/m 16.7 km/h (3 Bft) SO -13.4 C -9.1 C
12.01.2003 15:00 -3.7 C 44 % 1032.0 hPa 0.0 l/m 12.9 km/h (3 Bft) SO -14.2 C -8.3 C
12.01.2003 16:00 -4.5 C 44 % 1032.0 hPa 0.0 l/m 12.6 km/h (3 Bft) SO -15.0 C -9.4 C
12.01.2003 17:00 -6.2 C 47 % 1032.1 hPa 0.0 l/m 5.3 km/h (1 Bft) SO -15.7 C -8.4 C
12.01.2003 18:00 -7.1 C 53 % 1033.1 hPa 0.0 l/m 7.9 km/h (2 Bft) O-SO -15.2 C -10.9 C
12.01.2003 19:00 -8.4 C 61 % 1033.9 hPa 0.0 l/m 7.8 km/h (2 Bft) O-SO -14.6 C -12.1 C
12.01.2003 20:00 -9.3 C 67 % 1034.1 hPa 0.0 l/m 7.1 km/h (2 Bft) O-SO -14.2 C -12.7 C
12.01.2003 21:00 -10.5 C 70 % 1034.1 hPa 0.0 l/m 2.3 km/h (1 Bft) O-SO -14.8 C -11.4 C
12.01.2003 22:00 -11.0 C 74 % 1034.1 hPa 0.0 l/m 0.0 km/h (0 Bft) - - -14.7 C -11.0 C
12.01.2003 23:00 -11.1 C 75 % 1034.1 hPa 0.0 l/m 1.6 km/h (1 Bft) O-SO -14.6 C -11.9 C
Min-Datum _ 12.01.03 12.01.03 06.01.03 - 06.01.03 - 12.01.03 10.01.03
_ Min-Zeit 07:41 13:32 04:29 - 00:11 - 19:14 08:51
Minimum _ -12.2 C 43 % 1009.2 hPa - 0.0 km/h (0 Bft) - -16.7 C -16.9 C
Max-Datum _ 06.01.03 06.01.03 12.01.03 07.01.03 11.01.03 - 06.01.03 06.01.03
_ Max-Zeit 13:47 02:38 19:14 03:18 10:22 - 03:38 13:47
Maximum _ -1.5 C 92 % 1034.1 hPa 0.3 l/m 39.2 km/h
O-SO (6 Bft)
- -3.9 C -1.5 C
Durchschnitt _ -6.4 C 63 % 1018.3 hPa #0.9 l/m 4.3 km/h (1 Bft) O-SO -12.4 C -7.9 C

Durchschnitt Minimum Temp.-6.7 C
Durchschnitt Maximum Temp.-6.1 C
© Kaiko 2003